createdAt,value
2019-04-14T00:00:47.643Z,74.44
2019-04-14T00:03:28.225Z,75.10
2019-04-14T00:06:02.689Z,74.76
2019-04-14T00:08:34.810Z,74.74
2019-04-14T00:11:06.652Z,75.03
2019-04-14T00:13:39.272Z,74.73
2019-04-14T00:16:11.724Z,74.39
2019-04-14T00:18:44.740Z,74.79
2019-04-14T00:21:17.277Z,74.62
2019-04-14T00:23:50.152Z,74.69
2019-04-14T00:26:29.731Z,74.83
2019-04-14T00:29:02.648Z,74.53
2019-04-14T00:31:34.972Z,74.35
2019-04-14T00:34:20.708Z,74.21
2019-04-14T00:37:29.528Z,75.20
2019-04-14T00:40:15.017Z,74.20
2019-04-14T00:43:04.927Z,74.38
2019-04-14T00:45:49.934Z,75.04
2019-04-14T00:48:22.627Z,75.22
2019-04-14T00:50:55.915Z,74.86
2019-04-14T00:53:29.525Z,74.20
2019-04-14T00:56:01.958Z,74.07
2019-04-14T00:58:34.300Z,74.62
2019-04-14T01:01:07.002Z,74.72
2019-04-14T01:03:39.435Z,74.43
2019-04-14T01:06:12.244Z,75.31
2019-04-14T01:08:44.553Z,74.62
2019-04-14T01:11:16.640Z,74.24
2019-04-14T01:13:48.675Z,74.85
2019-04-14T01:16:23.878Z,74.22
2019-04-14T01:18:55.851Z,74.32
2019-04-14T01:21:28.547Z,74.47
2019-04-14T01:24:01.319Z,74.09
2019-04-14T01:26:33.252Z,74.43
2019-04-14T01:29:05.842Z,74.57
2019-04-14T01:31:38.230Z,74.31
2019-04-14T01:34:10.788Z,74.12
2019-04-14T01:36:43.167Z,74.11
2019-04-14T01:39:15.453Z,74.67
2019-04-14T01:41:47.877Z,74.06
2019-04-14T01:44:19.933Z,73.87
2019-04-14T01:46:52.133Z,74.14
2019-04-14T01:49:24.711Z,73.92
2019-04-14T01:52:21.401Z,73.40
2019-04-14T01:55:13.366Z,73.76
2019-04-14T01:58:14.286Z,73.97
2019-04-14T02:00:55.900Z,74.28
2019-04-14T02:03:28.172Z,74.15
2019-04-14T02:06:00.384Z,74.26
2019-04-14T02:08:32.906Z,74.29
2019-04-14T02:11:05.323Z,74.65
2019-04-14T02:13:37.541Z,74.75
2019-04-14T02:16:18.818Z,74.27
2019-04-14T02:18:44.909Z,74.12
2019-04-14T02:21:17.877Z,74.22
2019-04-14T02:23:49.901Z,74.06
2019-04-14T02:26:22.016Z,74.43
2019-04-14T02:28:54.989Z,74.29
2019-04-14T02:31:56.834Z,74.01
2019-04-14T02:34:34.673Z,74.18
2019-04-14T02:37:05.338Z,73.84
2019-04-14T02:39:48.322Z,74.06
2019-04-14T02:44:45.782Z,74.22
2019-04-14T02:47:36.898Z,73.69
2019-04-14T02:49:51.217Z,74.05
2019-04-14T02:52:30.445Z,73.29
2019-04-14T02:57:33.935Z,74.00
2019-04-14T03:02:38.925Z,74.14
2019-04-14T03:05:09.671Z,74.29
2019-04-14T03:07:46.889Z,73.08
2019-04-14T03:10:22.515Z,73.40
2019-04-14T03:12:57.851Z,72.83
2019-04-14T03:15:33.306Z,72.87
2019-04-14T03:21:15.446Z,73.37
2019-04-14T03:23:56.414Z,73.25
2019-04-14T03:29:36.429Z,74.08
2019-04-14T03:32:23.606Z,72.99
2019-04-14T03:34:55.197Z,73.31
2019-04-14T03:37:39.637Z,73.27
2019-04-14T03:39:51.413Z,73.54
2019-04-14T03:42:28.849Z,73.64
2019-04-14T03:44:59.019Z,73.38
2019-04-14T03:50:08.387Z,73.68
2019-04-14T03:52:50.062Z,74.00
2019-04-14T03:55:10.110Z,73.38
2019-04-14T03:57:21.502Z,73.50
2019-04-14T03:59:54.180Z,73.28
2019-04-14T04:02:27.137Z,73.61
2019-04-14T04:04:59.866Z,73.94
2019-04-14T04:07:32.269Z,73.96
2019-04-14T04:10:13.556Z,73.13
2019-04-14T04:12:46.471Z,73.46
2019-04-14T04:15:19.233Z,74.20
2019-04-14T04:17:56.050Z,73.20
2019-04-14T04:20:52.851Z,73.02
2019-04-14T04:23:49.615Z,72.63
2019-04-14T04:26:30.641Z,72.77
2019-04-14T04:29:24.477Z,72.74
2019-04-14T04:32:12.127Z,72.98
2019-04-14T04:35:04.213Z,72.87
2019-04-14T04:38:14.038Z,72.58
2019-04-14T04:40:46.798Z,72.03
2019-04-14T04:43:19.451Z,71.64
2019-04-14T04:45:51.692Z,71.44
2019-04-14T04:48:24.199Z,71.52
2019-04-14T04:50:58.582Z,71.82
2019-04-14T04:53:30.978Z,71.20
2019-04-14T04:56:03.634Z,71.22
2019-04-14T04:58:35.467Z,70.96
2019-04-14T05:01:07.724Z,70.87
2019-04-14T05:03:40.688Z,70.58
2019-04-14T05:07:08.054Z,70.27
2019-04-14T05:10:14.188Z,70.29
2019-04-14T05:13:07.228Z,70.26
2019-04-14T05:15:58.234Z,70.40
2019-04-14T05:18:31.273Z,69.09
2019-04-14T05:21:03.956Z,69.27
2019-04-14T05:23:36.724Z,69.40
2019-04-14T05:26:09.183Z,69.40
2019-04-14T05:28:41.645Z,70.06
2019-04-14T05:31:14.327Z,69.08
2019-04-14T05:33:46.898Z,70.19
2019-04-14T05:36:19.788Z,69.04
2019-04-14T05:38:51.828Z,69.39
2019-04-14T05:41:24.570Z,68.78
2019-04-14T05:43:59.909Z,69.21
2019-04-14T05:46:30.022Z,68.80
2019-04-14T05:49:02.198Z,68.13
2019-04-14T05:51:35.065Z,69.24
2019-04-14T05:54:07.840Z,68.90
2019-04-14T05:56:40.749Z,69.02
2019-04-14T05:59:13.484Z,68.99
2019-04-14T06:01:46.519Z,68.54
2019-04-14T06:04:18.402Z,68.29
2019-04-14T06:06:50.276Z,67.96
2019-04-14T06:09:22.332Z,67.58
2019-04-14T06:11:55.934Z,66.71
2019-04-14T06:14:28.168Z,66.97
2019-04-14T06:16:59.849Z,64.84
2019-04-14T06:19:38.035Z,65.13
2019-04-14T06:22:06.137Z,65.28
2019-04-14T06:24:37.850Z,64.94
2019-04-14T06:27:09.542Z,64.91
2019-04-14T06:29:41.317Z,64.51
2019-04-14T06:32:37.732Z,64.99
2019-04-14T06:35:28.059Z,64.84
2019-04-14T06:38:07.865Z,64.08
2019-04-14T06:40:53.009Z,62.96
2019-04-14T06:43:24.961Z,62.68
2019-04-14T06:45:56.755Z,62.88
2019-04-14T06:48:28.571Z,62.62
2019-04-14T06:51:00.258Z,62.67
2019-04-14T06:53:32.078Z,62.83
2019-04-14T06:56:03.936Z,60.90
2019-04-14T06:58:35.779Z,61.09
2019-04-14T07:01:07.564Z,61.38
2019-04-14T07:03:39.491Z,59.91
2019-04-14T07:06:11.352Z,60.48
2019-04-14T07:08:43.151Z,60.29
2019-04-14T07:11:15.004Z,59.75
2019-04-14T07:13:48.174Z,59.71
2019-04-14T07:16:20.081Z,60.96
2019-04-14T07:18:51.956Z,60.49
2019-04-14T07:21:23.735Z,60.59
2019-04-14T07:23:55.596Z,61.01
2019-04-14T07:26:27.284Z,61.08
2019-04-14T07:28:59.145Z,61.02
2019-04-14T07:31:52.493Z,60.83
2019-04-14T07:34:43.300Z,60.22
2019-04-14T07:37:36.825Z,59.75
2019-04-14T07:40:30.478Z,60.12
2019-04-14T07:43:21.144Z,59.91
2019-04-14T07:46:30.170Z,60.65
2019-04-14T07:49:19.162Z,60.33
2019-04-14T07:52:23.694Z,59.52
2019-04-14T07:55:20.197Z,60.56
2019-04-14T07:58:14.387Z,60.43
2019-04-14T08:00:54.351Z,60.74
2019-04-14T08:03:39.216Z,58.95
2019-04-14T08:06:10.905Z,60.59
2019-04-14T08:08:42.581Z,60.03
2019-04-14T08:11:14.282Z,60.10
2019-04-14T08:13:46.160Z,60.42
2019-04-14T08:16:17.858Z,59.16
2019-04-14T08:18:49.707Z,60.74
2019-04-14T08:21:21.880Z,59.41
2019-04-14T08:23:53.735Z,59.21
2019-04-14T08:26:25.534Z,59.97
2019-04-14T08:28:57.297Z,58.91
2019-04-14T08:31:28.978Z,58.15
2019-04-14T08:34:00.762Z,58.45
2019-04-14T08:36:33.993Z,58.14
2019-04-14T08:39:07.024Z,58.75
2019-04-14T08:42:07.245Z,57.44
2019-04-14T08:44:42.744Z,57.37
2019-04-14T08:47:45.832Z,56.60
2019-04-14T08:50:23.551Z,56.39
2019-04-14T08:53:11.980Z,56.12
2019-04-14T08:55:53.417Z,57.46
2019-04-14T08:58:47.178Z,55.56
2019-04-14T09:01:25.659Z,55.98
2019-04-14T09:04:03.210Z,56.23
2019-04-14T09:06:40.338Z,55.45
2019-04-14T09:09:33.789Z,53.31
2019-04-14T09:12:17.234Z,52.58
2019-04-14T09:14:56.854Z,51.90
2019-04-14T09:17:22.760Z,50.96
2019-04-14T09:19:54.805Z,49.14
2019-04-14T09:22:26.628Z,48.26
2019-04-14T09:24:59.050Z,48.42
2019-04-14T09:27:31.187Z,47.82
2019-04-14T09:30:03.102Z,47.05
2019-04-14T09:32:35.201Z,46.58
2019-04-14T09:35:07.367Z,45.25
2019-04-14T09:37:39.136Z,45.53
2019-04-14T09:40:11.768Z,44.38
2019-04-14T09:42:43.622Z,42.73
2019-04-14T09:45:15.420Z,42.03
2019-04-14T09:47:47.200Z,41.52
2019-04-14T09:50:19.947Z,41.68
2019-04-14T09:52:51.932Z,40.53
2019-04-14T09:55:23.748Z,41.03
2019-04-14T09:57:56.644Z,39.81
2019-04-14T10:00:28.426Z,39.71
2019-04-14T10:03:00.381Z,38.95
2019-04-14T10:05:33.249Z,39.83
2019-04-14T10:08:05.054Z,38.11
2019-04-14T10:10:36.905Z,36.67
2019-04-14T10:13:08.833Z,35.70
2019-04-14T10:15:40.613Z,35.39
2019-04-14T10:18:12.431Z,36.30
2019-04-14T10:20:44.234Z,38.18
2019-04-14T10:23:16.045Z,37.51
2019-04-14T10:25:47.916Z,35.82
2019-04-14T10:28:19.714Z,37.14
2019-04-14T10:30:51.888Z,36.34
2019-04-14T10:33:23.649Z,35.21
2019-04-14T10:35:55.359Z,36.66
2019-04-14T10:38:27.222Z,35.14
2019-04-14T10:40:59.020Z,36.40
2019-04-14T10:43:30.802Z,35.74
2019-04-14T10:46:02.650Z,33.20
2019-04-14T10:48:34.410Z,33.08
2019-04-14T10:51:06.386Z,30.21
2019-04-14T10:53:38.166Z,30.38
2019-04-14T10:56:09.924Z,31.19
2019-04-14T10:58:41.821Z,31.09
2019-04-14T11:01:13.543Z,31.85
2019-04-14T11:03:45.410Z,31.95
2019-04-14T11:06:39.436Z,31.01
2019-04-14T11:09:15.712Z,31.65
2019-04-14T11:11:47.565Z,31.49
2019-04-14T11:14:19.386Z,29.80
2019-04-14T11:16:51.392Z,29.39
2019-04-14T11:19:23.207Z,29.08
2019-04-14T11:21:55.214Z,28.88
2019-04-14T11:24:26.904Z,28.00
2019-04-14T11:26:58.687Z,27.72
2019-04-14T11:29:30.559Z,28.91
2019-04-14T11:32:40.852Z,28.18
2019-04-14T11:35:22.789Z,27.76
2019-04-14T11:38:20.177Z,26.88
2019-04-14T11:40:55.865Z,27.70
2019-04-14T11:43:29.850Z,26.00
2019-04-14T11:46:03.895Z,26.28
2019-04-14T11:48:36.102Z,26.96
2019-04-14T11:51:07.897Z,25.73
2019-04-14T11:53:39.979Z,25.36
2019-04-14T11:56:12.026Z,25.58
2019-04-14T11:58:43.768Z,25.00
2019-04-14T12:01:33.923Z,25.65
2019-04-14T12:04:23.798Z,25.35
2019-04-14T12:07:16.813Z,23.73
2019-04-14T12:10:07.547Z,24.66
2019-04-14T12:12:39.615Z,25.57
2019-04-14T12:15:15.901Z,25.44
2019-04-14T12:17:45.073Z,25.09
2019-04-14T12:20:16.905Z,26.73
2019-04-14T12:22:49.341Z,26.65
2019-04-14T12:25:21.446Z,27.45
2019-04-14T12:27:53.640Z,25.88
2019-04-14T12:30:26.823Z,27.63
2019-04-14T12:32:58.842Z,26.92
2019-04-14T12:35:30.656Z,28.08
2019-04-14T12:38:02.933Z,27.33
2019-04-14T12:40:35.225Z,27.47
2019-04-14T12:43:28.479Z,26.94
2019-04-14T12:46:29.302Z,26.74
2019-04-14T12:49:08.927Z,27.79
2019-04-14T12:51:59.420Z,27.15
2019-04-14T12:54:31.285Z,28.39
2019-04-14T12:57:02.982Z,27.54
2019-04-14T12:59:37.744Z,27.22
2019-04-14T13:02:16.867Z,27.01
2019-04-14T13:04:48.767Z,27.38
2019-04-14T13:07:20.622Z,26.81
2019-04-14T13:09:52.520Z,26.50
2019-04-14T13:12:24.323Z,27.13
2019-04-14T13:14:56.299Z,26.08
2019-04-14T13:17:29.201Z,27.20
2019-04-14T13:20:01.169Z,26.71
2019-04-14T13:22:34.429Z,26.82
2019-04-14T13:25:06.689Z,26.55
2019-04-14T13:27:39.316Z,27.46
2019-04-14T13:30:13.333Z,26.99
2019-04-14T13:32:45.255Z,26.63
2019-04-14T13:35:17.101Z,27.34
2019-04-14T13:37:49.191Z,26.81
2019-04-14T13:40:20.994Z,27.09
2019-04-14T13:42:53.400Z,27.61
2019-04-14T13:45:25.547Z,26.88
2019-04-14T13:47:57.395Z,27.77
2019-04-14T13:50:29.783Z,27.30
2019-04-14T13:53:01.803Z,26.08
2019-04-14T13:55:33.693Z,26.84
2019-04-14T13:58:05.664Z,26.84
2019-04-14T14:00:37.540Z,26.27
2019-04-14T14:03:09.414Z,25.70
2019-04-14T14:05:43.591Z,25.71
2019-04-14T14:08:15.264Z,25.42
2019-04-14T14:10:47.148Z,24.58
2019-04-14T14:13:29.806Z,25.29
2019-04-14T14:16:20.901Z,25.92
2019-04-14T14:19:06.803Z,25.19
2019-04-14T14:21:49.793Z,25.55
2019-04-14T14:24:37.594Z,25.00
2019-04-14T14:27:09.890Z,24.76
2019-04-14T14:29:41.919Z,25.66
2019-04-14T14:32:33.658Z,24.26
2019-04-14T14:35:06.833Z,25.42
2019-04-14T14:37:38.696Z,24.54
2019-04-14T14:40:10.591Z,24.31
2019-04-14T14:42:42.458Z,24.72
2019-04-14T14:45:18.804Z,23.80
2019-04-14T14:48:27.435Z,23.02
2019-04-14T14:51:03.118Z,24.59
2019-04-14T14:53:35.012Z,24.96
2019-04-14T14:56:06.794Z,24.26
2019-04-14T14:58:38.649Z,23.82
2019-04-14T15:01:10.609Z,22.67
2019-04-14T15:03:42.384Z,23.21
2019-04-14T15:06:14.239Z,23.52
2019-04-14T15:08:45.999Z,23.38
2019-04-14T15:11:17.711Z,23.06
2019-04-14T15:13:49.988Z,22.88
2019-04-14T15:16:21.868Z,24.02
2019-04-14T15:18:53.908Z,22.07
2019-04-14T15:21:26.146Z,21.63
2019-04-14T15:23:58.059Z,20.61
2019-04-14T15:26:29.817Z,21.28
2019-04-14T15:29:01.583Z,21.20
2019-04-14T15:31:33.452Z,20.51
2019-04-14T15:34:05.200Z,20.56
2019-04-14T15:36:37.050Z,19.98
2019-04-14T15:39:09.531Z,19.65
2019-04-14T15:41:41.292Z,19.47
2019-04-14T15:44:13.052Z,18.40
2019-04-14T15:46:44.842Z,18.11
2019-04-14T15:49:16.717Z,17.40
2019-04-14T15:51:48.405Z,17.13
2019-04-14T15:54:20.281Z,16.11
2019-04-14T15:57:06.396Z,16.03
2019-04-14T15:59:47.748Z,16.01
2019-04-14T16:02:33.879Z,16.10
2019-04-14T16:05:31.249Z,15.95
2019-04-14T16:08:17.125Z,16.01
2019-04-14T16:10:54.978Z,15.34
2019-04-14T16:13:54.774Z,15.35
2019-04-14T16:16:48.922Z,14.78
2019-04-14T16:19:28.273Z,15.27
2019-04-14T16:22:01.134Z,15.03
2019-04-14T16:24:33.818Z,15.18
2019-04-14T16:27:18.936Z,14.87
2019-04-14T16:30:10.197Z,14.21
2019-04-14T16:32:59.332Z,15.57
2019-04-14T16:35:32.323Z,15.12
2019-04-14T16:38:04.221Z,16.12
2019-04-14T16:40:36.695Z,16.64
2019-04-14T16:43:08.563Z,17.74
2019-04-14T16:45:40.457Z,17.99
2019-04-14T16:48:12.741Z,18.72
2019-04-14T16:50:44.622Z,18.14
2019-04-14T16:53:26.391Z,19.22
2019-04-14T16:56:19.958Z,19.51
2019-04-14T16:58:54.528Z,19.46
2019-04-14T17:01:34.821Z,20.21
2019-04-14T17:04:06.907Z,20.15
2019-04-14T17:06:38.659Z,20.19
2019-04-14T17:09:10.651Z,20.28
2019-04-14T17:11:45.029Z,21.27
2019-04-14T17:14:43.208Z,21.89
2019-04-14T17:17:32.881Z,22.64
2019-04-14T17:20:23.438Z,22.62
2019-04-14T17:23:18.477Z,23.66
2019-04-14T17:26:05.489Z,23.47
2019-04-14T17:29:04.488Z,24.25
2019-04-14T17:31:55.448Z,24.15
2019-04-14T17:34:49.145Z,24.77
2019-04-14T17:37:38.488Z,25.17
2019-04-14T17:40:35.329Z,25.30
2019-04-14T17:43:27.787Z,25.39
2019-04-14T17:46:25.124Z,25.91
2019-04-14T17:49:18.253Z,27.46
2019-04-14T17:52:11.784Z,27.31
2019-04-14T17:55:05.641Z,26.73
2019-04-14T17:58:14.268Z,27.68
2019-04-14T18:01:07.840Z,27.68
2019-04-14T18:03:51.122Z,27.86
2019-04-14T18:06:26.594Z,27.93
2019-04-14T18:09:08.501Z,27.80
2019-04-14T18:11:57.949Z,28.36
2019-04-14T18:14:48.890Z,28.39
2019-04-14T18:17:39.694Z,28.16
2019-04-14T18:20:30.765Z,29.30
2019-04-14T18:23:02.997Z,29.87
2019-04-14T18:25:34.954Z,30.08
2019-04-14T18:28:27.532Z,30.21
2019-04-14T18:31:17.780Z,30.54
2019-04-14T18:34:23.754Z,30.18
2019-04-14T18:37:02.378Z,30.24
2019-04-14T18:39:52.031Z,31.56
2019-04-14T18:42:37.461Z,31.24
2019-04-14T18:45:26.807Z,32.22
2019-04-14T18:48:06.288Z,31.83
2019-04-14T18:51:02.756Z,32.45
2019-04-14T18:53:53.564Z,34.01
2019-04-14T18:56:44.518Z,33.80
2019-04-14T18:59:33.811Z,33.48
2019-04-14T19:02:07.082Z,32.17
2019-04-14T19:04:38.968Z,33.29
2019-04-14T19:07:10.859Z,32.78
2019-04-14T19:09:42.729Z,33.45
2019-04-14T19:12:36.362Z,33.25
2019-04-14T19:15:20.246Z,33.48
2019-04-14T19:17:57.321Z,33.56
2019-04-14T19:20:30.624Z,32.88
2019-04-14T19:23:02.520Z,33.42
2019-04-14T19:25:34.514Z,33.62
2019-04-14T19:28:06.555Z,33.38
2019-04-14T19:30:38.425Z,33.51
2019-04-14T19:33:10.334Z,33.70
2019-04-14T19:35:42.035Z,33.65
2019-04-14T19:38:13.953Z,34.12
2019-04-14T19:40:45.911Z,34.69
2019-04-14T19:43:23.604Z,34.39
2019-04-14T19:45:51.345Z,34.99
2019-04-14T19:48:23.203Z,34.25
2019-04-14T19:50:55.107Z,34.86
2019-04-14T19:53:26.910Z,34.99
2019-04-14T19:55:58.929Z,34.88
2019-04-14T19:58:30.654Z,35.39
2019-04-14T20:01:02.562Z,35.50
2019-04-14T20:03:34.422Z,35.20
2019-04-14T20:06:06.783Z,35.46
2019-04-14T20:08:38.636Z,35.06
2019-04-14T20:11:10.496Z,35.92
2019-04-14T20:13:45.586Z,35.89
2019-04-14T20:16:34.282Z,36.11
2019-04-14T20:19:36.849Z,35.61
2019-04-14T20:22:29.084Z,37.21
2019-04-14T20:25:08.068Z,36.79
2019-04-14T20:28:03.683Z,36.84
2019-04-14T20:30:42.193Z,37.28
2019-04-14T20:33:14.048Z,37.55
2019-04-14T20:35:45.799Z,38.02
2019-04-14T20:38:17.648Z,38.30
2019-04-14T20:40:50.406Z,38.70
2019-04-14T20:43:22.210Z,39.14
2019-04-14T20:45:54.863Z,39.48
2019-04-14T20:48:26.624Z,39.82
2019-04-14T20:50:58.376Z,39.90
2019-04-14T20:53:30.136Z,40.39
2019-04-14T20:56:01.887Z,40.93
2019-04-14T20:58:33.759Z,40.85
2019-04-14T21:01:07.181Z,40.79
2019-04-14T21:04:04.055Z,40.96
2019-04-14T21:06:53.234Z,41.10
2019-04-14T21:09:42.635Z,41.14
2019-04-14T21:12:42.352Z,41.21
2019-04-14T21:15:33.063Z,41.49
2019-04-14T21:18:08.946Z,41.94
2019-04-14T21:20:51.752Z,41.92
2019-04-14T21:23:45.037Z,41.67
2019-04-14T21:26:43.048Z,41.85
2019-04-14T21:29:51.720Z,42.30
2019-04-14T21:32:30.536Z,43.12
2019-04-14T21:35:19.930Z,43.01
2019-04-14T21:38:16.709Z,42.77
2019-04-14T21:41:01.401Z,42.82
2019-04-14T21:43:33.275Z,42.56
2019-04-14T21:46:05.026Z,42.96
2019-04-14T21:48:36.786Z,43.01
2019-04-14T21:51:08.638Z,42.94
2019-04-14T21:53:40.328Z,43.48
2019-04-14T21:56:13.580Z,43.33
2019-04-14T21:59:13.406Z,43.77
2019-04-14T22:02:02.434Z,43.85
2019-04-14T22:04:59.182Z,43.86
2019-04-14T22:07:48.395Z,44.21
2019-04-14T22:10:26.710Z,44.76
2019-04-14T22:12:58.560Z,44.25
2019-04-14T22:15:31.411Z,44.74
2019-04-14T22:18:03.184Z,44.44
2019-04-14T22:20:35.032Z,44.86
2019-04-14T22:23:10.179Z,44.19
2019-04-14T22:25:42.015Z,44.72
2019-04-14T22:28:13.888Z,45.31
2019-04-14T22:30:45.736Z,45.46
2019-04-14T22:33:17.513Z,45.49
2019-04-14T22:35:49.262Z,45.37
2019-04-14T22:38:21.043Z,45.44
2019-04-14T22:40:52.835Z,45.68
2019-04-14T22:43:24.674Z,46.20
2019-04-14T22:45:56.499Z,45.93
2019-04-14T22:48:28.379Z,46.00
2019-04-14T22:51:01.255Z,46.34
2019-04-14T22:53:33.117Z,46.65
2019-04-14T22:56:04.976Z,46.95
2019-04-14T22:58:37.827Z,46.81
2019-04-14T23:01:17.214Z,47.24
2019-04-14T23:04:16.377Z,47.06
2019-04-14T23:07:06.851Z,47.53
2019-04-14T23:09:48.181Z,47.54
2019-04-14T23:12:47.955Z,47.76
2019-04-14T23:15:38.636Z,47.75
2019-04-14T23:18:30.861Z,47.53
2019-04-14T23:21:14.978Z,48.41
2019-04-14T23:23:56.447Z,47.77
2019-04-14T23:26:28.524Z,48.67
2019-04-14T23:29:02.065Z,48.08
2019-04-14T23:31:33.847Z,48.57
2019-04-14T23:34:05.701Z,48.82
2019-04-14T23:36:37.553Z,49.27
2019-04-14T23:39:11.419Z,49.34
2019-04-14T23:41:43.373Z,48.65
2019-04-14T23:44:16.233Z,49.51
2019-04-14T23:46:47.987Z,49.31
2019-04-14T23:49:19.721Z,49.90
2019-04-14T23:51:51.455Z,49.41
2019-04-14T23:54:23.218Z,50.25
2019-04-14T23:57:05.265Z,50.20
2019-04-14T23:59:28.556Z,50.24
